Aviation Digital Data Service (ADDS)

Output produced by METARs form (1240 UTC 19 January 2019)
found at http://www.aviationweather.gov/metar/data/
 
Forecast for: OTBD (DOHA INTL AIRPOR, QA)
Text: TAF OTBD 191047Z 1912/2018 32014KT CAVOK
Forecast period: 1200 UTC 19 January 2019 to 1800 UTC 20 January 2019
Forecast type: FROM: standard forecast or significant change
Winds: from the NW (320 degrees) at 16 MPH (14 knots; 7.2 m/s)
Visibility: 6 or more miles 10+ km)
Ceiling: unknown
Clouds: missing
Weather: NSW  (no significant weather)